Time;durP1;ratioP1;P1;durP2;ratioP2;P2;SDS_P1;SDS_P2;PMS_P1;PMS_P2;Temp;Humidity;BMP_temperature;BMP_pressure;BME280_temperature;BME280_humidity;BME280_pressure;Samples;Min_cycle;Max_cycle;Signal;HPM_P1;HPM_P2
2022/06/22 00:01:10;;;;;;;9.57;7.75;;;;;;;13.79;69.77;101148.78;5063955;28;20020;-91
2022/06/22 00:03:35;;;;;;;10.02;8.75;;;;;;;13.75;71.24;101144.56;5069194;28;20048;-91
2022/06/22 00:06:01;;;;;;;14.35;8.75;;;;;;;13.74;71.47;101140.19;5067088;28;20040;-90
2022/06/22 00:08:32;;;;;;;11.27;9.60;;;;;;;13.69;71.64;101139.59;5063645;28;20059;-94
2022/06/22 00:11:07;;;;;;;15.38;9.45;;;;;;;13.70;71.51;101146.66;5067687;28;20529;-94
2022/06/22 00:13:33;;;;;;;13.45;9.52;;;;;;;13.65;72.16;101154.09;5059716;28;20075;-93
2022/06/22 00:16:15;;;;;;;13.38;9.73;;;;;;;13.64;72.24;101137.22;5064381;28;20048;-94
2022/06/22 00:18:46;;;;;;;13.20;9.55;;;;;;;13.59;72.78;101131.28;5064221;28;20585;-94
2022/06/22 00:21:19;;;;;;;11.48;9.25;;;;;;;13.61;72.53;101136.53;5064249;28;20052;-94
2022/06/22 00:23:48;;;;;;;13.57;10.75;;;;;;;13.51;73.72;101132.69;5068703;28;20051;-94
2022/06/22 00:26:23;;;;;;;11.82;9.65;;;;;;;13.50;73.63;101141.63;5070602;28;20028;-95
2022/06/22 00:29:02;;;;;;;14.07;9.73;;;;;;;13.45;73.95;101139.22;5058147;28;20123;-94
2022/06/22 00:31:41;;;;;;;14.45;9.85;;;;;;;13.40;74.51;101133.28;5067458;28;20103;-94
2022/06/22 00:34:31;;;;;;;13.00;10.02;;;;;;;13.40;73.41;101125.25;5053547;28;20037;-93
2022/06/22 00:37:05;;;;;;;13.77;10.13;;;;;;;13.40;74.10;101127.94;5061736;28;20033;-95
2022/06/22 00:39:38;;;;;;;13.25;9.60;;;;;;;13.35;74.68;101122.88;5069631;28;20028;-94
2022/06/22 00:42:15;;;;;;;14.55;9.63;;;;;;;13.37;74.15;101128.97;5068080;28;20071;-94
2022/06/22 00:44:51;;;;;;;12.13;9.63;;;;;;;13.36;74.54;101129.94;5084570;28;20074;-94
2022/06/22 00:47:25;;;;;;;16.15;9.80;;;;;;;13.32;74.51;101132.88;5067653;28;20071;-95
2022/06/22 00:49:52;;;;;;;;;;;;;;;13.37;71.81;101134.31;5075523;28;20016;-94
2022/06/22 00:52:44;;;;;;;12.48;9.95;;;;;;;13.27;74.88;101127.78;5068258;28;19920;-93
2022/06/22 00:55:22;;;;;;;12.23;9.80;;;;;;;13.30;74.71;101126.75;5083341;28;20028;-93
2022/06/22 00:57:56;;;;;;;11.55;9.65;;;;;;;13.25;75.33;101118.13;5068771;28;20377;-94
2022/06/22 01:00:25;;;;;;;13.40;9.20;;;;;;;13.20;76.00;101105.00;5077232;28;20024;-94
2022/06/22 01:02:58;;;;;;;10.75;9.60;;;;;;;13.19;75.91;101103.28;5099450;28;20020;-93
2022/06/22 01:05:33;;;;;;;14.38;9.77;;;;;;;13.19;75.96;101113.97;5094908;28;20046;-93
2022/06/22 01:08:28;;;;;;;13.93;10.88;;;;;;;13.14;76.02;101124.06;5090974;28;20033;-94
2022/06/22 01:11:03;;;;;;;12.15;10.00;;;;;;;13.11;77.15;101126.91;5082157;28;20051;-92
2022/06/22 01:13:37;;;;;;;13.13;10.55;;;;;;;13.05;77.29;101128.13;5070756;28;20028;-94
2022/06/22 01:16:04;;;;;;;;;;;;;;;13.10;74.01;101133.22;5074706;28;20083;-94
2022/06/22 01:18:34;;;;;;;14.30;10.23;;;;;;;13.05;77.37;101140.63;5077702;28;19920;-93
2022/06/22 01:21:09;;;;;;;14.77;10.45;;;;;;;12.99;78.56;101143.63;5057802;28;20034;-95
2022/06/22 01:23:37;;;;;;;13.60;10.75;;;;;;;12.98;77.78;101141.91;5078490;28;20032;-93
2022/06/22 01:26:10;;;;;;;13.77;10.80;;;;;;;12.95;78.04;101125.09;5068958;28;20474;-94
2022/06/22 01:28:37;;;;;;;15.30;11.32;;;;;;;12.91;78.66;101117.34;5063204;28;20089;-94
2022/06/22 01:31:06;;;;;;;11.70;10.50;;;;;;;12.90;78.66;101113.81;5071234;28;20044;-95
2022/06/22 01:33:35;;;;;;;15.18;10.98;;;;;;;12.88;79.05;101104.19;5068903;28;20060;-95
2022/06/22 01:36:07;;;;;;;13.73;10.32;;;;;;;12.82;80.20;101099.16;5066794;28;20124;-94
2022/06/22 01:38:37;;;;;;;14.02;11.05;;;;;;;12.76;80.34;101087.03;5067636;28;20033;-95
2022/06/22 01:41:19;;;;;;;14.23;11.00;;;;;;;12.71;81.36;101097.97;5056045;28;20139;-94
2022/06/22 01:44:00;;;;;;;14.45;11.48;;;;;;;12.69;82.02;101107.00;5063313;28;20052;-94
2022/06/22 01:46:40;;;;;;;15.13;11.18;;;;;;;12.67;81.46;101116.91;5067095;28;20036;-93
2022/06/22 01:49:30;;;;;;;15.98;12.15;;;;;;;12.66;80.93;101116.03;5077335;28;20506;-92
2022/06/22 01:52:05;;;;;;;17.52;11.93;;;;;;;12.65;81.99;101102.78;5063581;28;20047;-92
2022/06/22 01:54:43;;;;;;;15.65;11.00;;;;;;;12.58;82.14;101091.59;5067716;28;20040;-92
2022/06/22 01:57:20;;;;;;;17.08;12.38;;;;;;;12.60;82.93;101096.84;5062780;28;20101;-92
2022/06/22 01:59:54;;;;;;;17.17;12.15;;;;;;;12.54;84.13;101084.69;5066514;28;20039;-92
2022/06/22 02:02:25;;;;;;;18.92;12.32;;;;;;;12.50;84.43;101088.47;5068725;28;20177;-93
2022/06/22 02:04:57;;;;;;;14.80;11.82;;;;;;;12.47;84.16;101083.28;5062402;28;20037;-93
2022/06/22 02:07:45;;;;;;;14.52;11.98;;;;;;;12.46;84.44;101095.78;5065352;28;20093;-92
2022/06/22 02:10:32;;;;;;;15.55;12.38;;;;;;;12.48;83.81;101095.69;5067627;28;20031;-93
2022/06/22 02:13:17;;;;;;;15.90;11.65;;;;;;;12.45;84.93;101088.69;5067046;28;20033;-94
2022/06/22 02:15:50;;;;;;;24.75;13.65;;;;;;;12.40;85.51;101100.59;5063627;28;20611;-94
2022/06/22 02:18:24;;;;;;;15.85;12.68;;;;;;;12.41;85.49;101100.50;5066567;28;20112;-91
2022/06/22 02:20:51;;;;;;;14.27;12.30;;;;;;;12.38;85.48;101111.34;5064216;28;20319;-91
2022/06/22 02:23:25;;;;;;;19.40;12.50;;;;;;;12.36;86.05;101102.56;5062856;28;20040;-93
2022/06/22 02:26:05;;;;;;;21.08;13.07;;;;;;;12.40;85.36;101104.13;5069497;28;20554;-93
2022/06/22 02:28:31;;;;;;;18.58;13.50;;;;;;;12.33;86.24;101093.84;5064720;28;20021;-92
2022/06/22 02:30:58;;;;;;;16.25;13.00;;;;;;;12.34;86.20;101093.78;5065582;28;20694;-93
2022/06/22 02:33:24;;;;;;;15.68;12.45;;;;;;;12.36;86.20;101086.53;5072396;28;20032;-92
2022/06/22 02:35:52;;;;;;;17.35;12.73;;;;;;;12.30;85.96;101078.88;5077271;28;20032;-93
2022/06/22 02:38:17;;;;;;;20.05;13.48;;;;;;;12.29;86.68;101087.84;5067649;28;20090;-92
2022/06/22 02:46:18;;;;;;;15.35;13.52;;;;;;;12.26;87.01;101085.31;5077192;28;20121;-92
2022/06/22 02:48:52;;;;;;;17.48;13.00;;;;;;;12.27;87.10;101075.50;5070083;28;20028;-93
2022/06/22 02:51:25;;;;;;;16.85;13.30;;;;;;;12.21;87.33;101074.03;5062570;28;20394;-91
2022/06/22 02:53:53;;;;;;;17.93;13.30;;;;;;;12.13;87.93;101081.59;5066808;28;20032;-93
2022/06/22 02:56:25;;;;;;;16.60;13.02;;;;;;;12.14;87.93;101088.66;5065490;28;20365;-93
2022/06/22 02:58:50;;;;;;;19.85;13.75;;;;;;;12.12;88.00;101093.19;5069261;28;20035;-94
2022/06/22 03:01:19;;;;;;;15.70;13.27;;;;;;;12.09;88.68;101094.25;5094951;28;20397;-93
2022/06/22 03:03:58;;;;;;;20.38;14.80;;;;;;;12.05;88.55;101086.47;5071578;28;20042;-94
2022/06/22 03:06:30;;;;;;;19.73;14.65;;;;;;;12.03;88.84;101085.69;5063102;28;20020;-94
2022/06/22 03:09:00;;;;;;;16.10;13.88;;;;;;;12.02;88.61;101083.97;5083039;28;20469;-93
2022/06/22 03:11:25;;;;;;;15.75;13.43;;;;;;;12.02;88.43;101089.31;5075570;28;20028;-94
2022/06/22 03:14:24;;;;;;;20.63;14.73;;;;;;;12.04;88.05;101084.72;5071349;28;20036;-94
2022/06/22 03:17:06;;;;;;;22.85;14.68;;;;;;;11.95;88.60;101084.31;5071991;28;20032;-94
2022/06/22 03:20:04;;;;;;;16.92;13.52;;;;;;;11.94;88.36;101074.56;5087504;28;20027;-93
2022/06/22 03:22:35;;;;;;;21.05;14.05;;;;;;;11.87;88.99;101065.19;5069670;28;20129;-95
2022/06/22 03:25:14;;;;;;;18.80;14.40;;;;;;;11.88;88.91;101069.56;5070477;28;20115;-93
2022/06/22 03:27:44;;;;;;;17.80;13.95;;;;;;;11.88;88.61;101064.22;5071106;28;20021;-94
2022/06/22 03:30:20;;;;;;;20.60;14.63;;;;;;;11.86;88.80;101071.44;5066183;28;20020;-94
2022/06/22 03:32:54;;;;;;;21.02;14.13;;;;;;;11.85;89.18;101069.72;5061622;28;20509;-93
2022/06/22 03:35:50;;;;;;;20.75;14.88;;;;;;;11.87;88.90;101066.94;5066376;28;20115;-93
2022/06/22 03:38:20;;;;;;;19.98;14.57;;;;;;;11.86;89.95;101070.56;5058502;28;20047;-94
2022/06/22 03:40:51;;;;;;;19.45;15.10;;;;;;;11.78;90.16;101062.06;5063984;28;20036;-94
2022/06/22 03:43:26;;;;;;;22.55;14.90;;;;;;;11.79;90.29;101059.34;5067315;28;20032;-93
2022/06/22 03:46:16;;;;;;;19.63;15.73;;;;;;;11.79;90.08;101047.78;5074015;28;20047;-93
2022/06/22 03:48:47;;;;;;;18.48;14.88;;;;;;;11.83;90.23;101057.38;5069577;28;20040;-93
2022/06/22 03:51:22;;;;;;;19.67;14.95;;;;;;;11.84;90.39;101060.00;5066798;28;20029;-95
2022/06/22 03:53:55;;;;;;;22.00;15.93;;;;;;;11.79;91.21;101050.47;5061245;28;20025;-95
2022/06/22 03:56:24;;;;;;;20.60;15.73;;;;;;;11.86;90.97;101051.91;5067772;28;20043;-93
2022/06/22 03:58:51;;;;;;;22.17;15.85;;;;;;;11.80;91.38;101047.72;5063904;28;20089;-94
2022/06/22 04:01:19;;;;;;;22.70;15.65;;;;;;;11.90;91.28;101050.78;5066209;28;20024;-94
2022/06/22 04:03:44;;;;;;;21.73;14.27;;;;;;;11.90;91.12;101056.13;5066451;28;20047;-94
2022/06/22 04:06:23;;;;;;;21.73;15.25;;;;;;;11.88;91.52;101061.56;5064144;28;21677;-95
2022/06/22 04:08:50;;;;;;;19.50;15.80;;;;;;;11.96;91.44;101067.34;5070356;28;20036;-95
2022/06/22 04:11:25;;;;;;;20.95;15.57;;;;;;;11.98;91.61;101063.72;5083913;28;20194;-95
2022/06/22 04:14:04;;;;;;;19.30;15.80;;;;;;;12.02;91.66;101067.97;5080566;28;20428;-94
2022/06/22 04:16:37;;;;;;;19.92;16.83;;;;;;;12.00;92.09;101073.38;5080075;28;20028;-94
2022/06/22 04:19:21;;;;;;;22.33;15.23;;;;;;;12.02;91.85;101065.28;5080810;28;20032;-94
2022/06/22 04:21:52;;;;;;;;;;;;;;;12.12;89.44;101066.50;5069214;28;20112;-94
2022/06/22 04:24:23;;;;;;;21.90;15.15;;;;;;;12.16;91.75;101076.06;5074011;28;19927;-95
2022/06/22 04:27:02;;;;;;;20.27;15.98;;;;;;;12.21;91.89;101072.22;5053324;28;20040;-95
2022/06/22 04:30:15;;;;;;;21.92;16.83;;;;;;;12.23;91.15;101066.81;5067002;28;20043;-95
2022/06/22 04:32:48;;;;;;;22.33;16.63;;;;;;;12.25;91.88;101072.94;5049087;28;20048;-95
2022/06/22 04:35:43;;;;;;;23.50;16.30;;;;;;;12.30;91.59;101081.53;5099219;28;20533;-94
2022/06/22 04:38:31;;;;;;;22.98;16.00;;;;;;;12.34;91.68;101084.91;5053502;28;20036;-95
2022/06/22 04:41:04;;;;;;;22.83;16.90;;;;;;;12.37;91.71;101084.72;5061036;28;20487;-95
2022/06/22 04:43:32;;;;;;;22.00;16.88;;;;;;;12.42;91.71;101096.91;5064533;28;20025;-95
2022/06/22 04:45:57;;;;;;;21.40;17.23;;;;;;;12.44;91.64;101092.31;5063265;28;20114;-96
2022/06/22 04:48:35;;;;;;;24.13;17.08;;;;;;;12.53;91.77;101090.09;5066240;28;20086;-95
2022/06/22 04:51:03;;;;;;;23.58;17.63;;;;;;;12.55;91.71;101091.75;5063413;28;20029;-93
2022/06/22 04:53:35;;;;;;;25.67;18.33;;;;;;;12.65;91.78;101092.09;5068148;28;20017;-94
2022/06/22 04:56:06;;;;;;;22.70;17.83;;;;;;;12.73;91.59;101087.19;5065659;28;20025;-95
2022/06/22 04:58:50;;;;;;;23.98;17.98;;;;;;;12.80;91.48;101085.03;5055105;28;20478;-93
2022/06/22 05:01:26;;;;;;;;;;;;;;;12.89;89.47;101088.06;5053658;28;20038;-96
2022/06/22 05:03:55;;;;;;;21.75;17.17;;;;;;;12.99;90.94;101099.06;5063369;28;20321;-96
2022/06/22 05:06:27;;;;;;;25.80;17.58;;;;;;;13.06;90.59;101102.25;5059100;28;20114;-94
2022/06/22 05:09:04;;;;;;;25.38;17.65;;;;;;;13.13;90.52;101104.50;5066912;28;20111;-93
2022/06/22 05:11:42;;;;;;;20.73;17.35;;;;;;;13.22;90.05;101108.47;5067294;28;20032;-95
2022/06/22 05:14:20;;;;;;;22.98;18.45;;;;;;;13.29;89.70;101091.13;5065163;28;20029;-95
2022/06/22 05:16:56;;;;;;;23.13;17.65;;;;;;;13.38;89.90;101087.06;5059785;28;20037;-95
2022/06/22 05:19:24;;;;;;;22.35;18.05;;;;;;;13.42;89.75;101088.63;5070024;28;20075;-94
2022/06/22 05:21:49;;;;;;;22.23;18.85;;;;;;;13.50;89.45;101091.69;5068825;28;20157;-94
2022/06/22 05:24:32;;;;;;;26.67;19.90;;;;;;;13.62;88.68;101093.63;5072162;28;20115;-94
2022/06/22 05:27:01;;;;;;;26.60;18.15;;;;;;;13.73;88.86;101098.34;5079670;28;20393;-94
2022/06/22 05:29:37;;;;;;;27.52;18.45;;;;;;;13.84;88.35;101092.38;5072080;28;20386;-94
2022/06/22 05:32:09;;;;;;;26.17;18.38;;;;;;;13.90;87.70;101090.16;5075727;28;20462;-94
2022/06/22 05:34:38;;;;;;;23.42;18.55;;;;;;;13.93;87.40;101089.97;5083441;28;20029;-94
2022/06/22 05:37:35;;;;;;;25.05;18.45;;;;;;;13.98;87.16;101089.69;5071338;28;20028;-95
2022/06/22 05:40:03;;;;;;;22.02;18.30;;;;;;;14.05;87.03;101109.78;5058595;28;20401;-95
2022/06/22 05:42:31;;;;;;;25.10;18.55;;;;;;;14.12;86.32;101118.28;5109020;27;20020;-95
2022/06/22 05:44:58;;;;;;;24.38;18.90;;;;;;;14.15;86.02;101112.75;5070003;28;20048;-96
2022/06/22 05:47:30;;;;;;;24.33;18.08;;;;;;;14.31;86.13;101126.06;5066589;28;20028;-96
2022/06/22 05:50:31;;;;;;;22.15;17.48;;;;;;;14.40;85.66;101123.66;5068655;28;20066;-95
2022/06/22 05:53:03;;;;;;;26.73;18.70;;;;;;;14.53;85.08;101114.88;5060883;28;20314;-91
2022/06/22 05:55:37;;;;;;;26.58;18.15;;;;;;;14.75;84.39;101134.00;5064644;28;20029;-94
2022/06/22 05:58:12;;;;;;;20.40;17.30;;;;;;;14.89;83.34;101130.44;5071593;28;20028;-94
2022/06/22 06:00:44;;;;;;;21.95;17.02;;;;;;;15.09;83.34;101139.84;5076385;28;20143;-96
2022/06/22 06:03:12;;;;;;;22.30;17.67;;;;;;;15.30;82.02;101138.47;5070674;28;20020;-96
2022/06/22 06:05:49;;;;;;;23.55;17.65;;;;;;;15.41;80.95;101132.38;5102770;28;20135;-95
2022/06/22 06:08:35;;;;;;;22.80;17.05;;;;;;;15.59;80.50;101136.53;5067603;28;20175;-95
2022/06/22 06:11:02;;;;;;;21.42;18.83;;;;;;;15.75;79.31;101128.31;5071845;28;20068;-94
2022/06/22 06:13:35;;;;;;;23.65;18.58;;;;;;;15.87;78.69;101129.31;5063179;28;20425;-95
2022/06/22 06:16:02;;;;;;;19.73;15.95;;;;;;;15.99;78.13;101130.31;5066887;28;20046;-94
2022/06/22 06:18:32;;;;;;;18.73;15.98;;;;;;;16.14;77.77;101138.16;5072338;28;20040;-96
2022/06/22 06:21:04;;;;;;;22.63;16.92;;;;;;;16.31;77.73;101137.00;5062414;28;20059;-93
2022/06/22 06:23:41;;;;;;;20.67;15.75;;;;;;;16.50;76.35;101143.75;5075750;28;20029;-95
2022/06/22 06:29:14;;;;;;;19.73;16.50;;;;;;;16.78;75.87;101146.22;5056711;28;20086;-93
2022/06/22 06:31:56;;;;;;;21.67;16.33;;;;;;;17.01;74.37;101149.91;5072975;28;20539;-94
2022/06/22 06:34:31;;;;;;;23.10;16.70;;;;;;;17.34;73.36;101151.09;5065525;28;20078;-91
2022/06/22 06:37:01;;;;;;;17.55;13.98;;;;;;;17.62;70.70;101141.81;5070930;28;20035;-95
2022/06/22 06:39:32;;;;;;;20.42;14.90;;;;;;;17.80;69.61;101131.50;5066740;28;20028;-92
2022/06/22 06:42:04;;;;;;;18.35;15.38;;;;;;;17.77;68.57;101127.22;5091235;28;20055;-94
2022/06/22 06:44:38;;;;;;;20.52;14.88;;;;;;;17.99;69.29;101139.03;5100379;28;20481;-93
2022/06/22 06:47:12;;;;;;;17.48;14.40;;;;;;;18.06;68.04;101143.84;5069727;28;20036;-93
2022/06/22 06:49:45;;;;;;;17.08;13.73;;;;;;;18.29;67.51;101127.69;5059776;28;20381;-92
2022/06/22 06:52:42;;;;;;;18.52;13.85;;;;;;;18.49;68.11;101115.34;5083830;28;20582;-95
2022/06/22 06:55:10;;;;;;;17.52;13.35;;;;;;;18.66;65.76;101109.44;5057420;28;20412;-93
2022/06/22 06:57:38;;;;;;;20.00;13.60;;;;;;;18.83;64.05;101118.91;5053089;28;20040;-96
2022/06/22 07:00:06;;;;;;;16.23;11.70;;;;;;;18.85;63.10;101112.41;5051071;28;20108;-93
2022/06/22 07:02:37;;;;;;;17.27;13.27;;;;;;;18.84;64.23;101110.69;5015017;28;20029;-91
2022/06/22 07:05:24;;;;;;;18.98;14.25;;;;;;;18.79;64.99;101109.34;5049514;28;20098;-91
2022/06/22 07:07:55;;;;;;;16.15;13.82;;;;;;;18.75;64.47;101111.44;5033252;28;20022;-90
2022/06/22 07:10:31;;;;;;;15.13;13.27;;;;;;;18.72;64.65;101108.13;5041451;28;20029;-93
2022/06/22 07:13:00;;;;;;;16.38;13.18;;;;;;;18.74;63.59;101116.97;5038485;28;20517;-95
2022/06/22 07:15:34;;;;;;;20.35;13.60;;;;;;;18.91;64.64;101114.59;5061397;28;20109;-93
2022/06/22 07:18:08;;;;;;;18.30;14.55;;;;;;;19.12;62.83;101103.03;5053870;28;20130;-96
2022/06/22 07:20:39;;;;;;;18.92;13.07;;;;;;;19.34;63.41;101107.50;5085073;28;20037;-92
2022/06/22 07:23:19;;;;;;;18.25;13.93;;;;;;;19.30;61.12;101112.28;5068147;28;20029;-94
2022/06/22 07:25:49;;;;;;;14.77;13.20;;;;;;;19.23;61.00;101111.09;5050799;28;20046;-92
2022/06/22 07:28:42;;;;;;;15.88;12.65;;;;;;;19.47;62.85;101107.31;5053040;28;20146;-92
2022/06/22 07:31:10;;;;;;;13.50;11.98;;;;;;;19.74;59.33;101096.94;5064476;28;20028;-92
2022/06/22 07:33:43;;;;;;;15.90;11.88;;;;;;;20.03;58.03;101085.47;5073630;28;20028;-96
2022/06/22 07:36:18;;;;;;;14.60;10.88;;;;;;;20.14;57.28;101085.34;5072115;28;20036;-93
2022/06/22 07:38:58;;;;;;;12.88;10.25;;;;;;;20.17;56.57;101082.41;5083491;28;20044;-96
2022/06/22 07:41:25;;;;;;;14.43;10.48;;;;;;;20.10;55.83;101048.78;5102238;22;20057;-95
2022/06/22 07:44:00;;;;;;;13.07;10.10;;;;;;;20.41;56.19;101073.97;5057467;28;20040;-90
2022/06/22 07:46:35;;;;;;;19.38;10.43;;;;;;;20.34;54.82;101097.97;5053441;28;20037;-96
2022/06/22 07:49:17;;;;;;;12.07;9.55;;;;;;;20.74;56.56;101099.91;5038352;28;20544;-91
2022/06/22 07:51:58;;;;;;;12.40;9.40;;;;;;;21.37;52.62;101097.75;5037118;28;20053;-92
2022/06/22 07:54:31;;;;;;;11.07;9.30;;;;;;;21.55;51.70;101106.03;5046846;28;20111;-91
2022/06/22 07:57:23;;;;;;;12.23;9.32;;;;;;;21.56;52.11;101101.47;5045033;28;20024;-91
2022/06/22 07:59:59;;;;;;;11.57;9.70;;;;;;;21.53;51.54;101091.78;5047620;28;20056;-95
2022/06/22 08:02:29;;;;;;;14.05;8.90;;;;;;;21.35;51.27;101088.91;5041258;28;20025;-93
2022/06/22 08:05:08;;;;;;;9.48;7.90;;;;;;;21.35;51.10;101090.78;5037252;28;20112;-92
2022/06/22 08:08:01;;;;;;;11.80;8.38;;;;;;;21.64;52.07;101096.19;5046943;28;20032;-91
2022/06/22 08:10:43;;;;;;;14.87;7.53;;;;;;;22.21;49.94;101088.97;5043152;28;20091;-93
2022/06/22 08:13:14;;;;;;;10.80;7.40;;;;;;;22.32;47.66;101091.53;5041352;28;20306;-93
2022/06/22 08:15:47;;;;;;;9.80;6.82;;;;;;;22.52;46.58;101102.28;5045652;28;20474;-92
2022/06/22 08:18:13;;;;;;;7.28;6.10;;;;;;;22.65;45.96;101110.06;5048183;28;20036;-90
2022/06/22 08:20:42;;;;;;;8.35;5.80;;;;;;;22.77;44.82;101107.00;5048174;28;20021;-92
2022/06/22 08:23:15;;;;;;;7.03;5.85;;;;;;;23.50;43.15;101115.16;5044525;28;20025;-93
2022/06/22 08:25:44;;;;;;;6.45;4.95;;;;;;;24.52;41.79;101111.88;5043815;28;21307;-96
2022/06/22 08:28:13;;;;;;;7.82;5.30;;;;;;;25.07;38.21;101114.13;5045414;28;20021;-92
2022/06/22 08:30:40;;;;;;;9.00;5.57;;;;;;;25.85;37.63;101118.38;5047319;28;20421;-91
2022/06/22 08:33:08;;;;;;;8.38;6.10;;;;;;;26.31;36.34;101114.06;5047661;28;20029;-91
2022/06/22 08:35:52;;;;;;;10.05;5.72;;;;;;;27.01;37.04;101112.47;5048216;28;20029;-90
2022/06/22 08:38:26;;;;;;;9.75;5.35;;;;;;;27.86;34.79;101119.78;5046991;28;20010;-91
2022/06/22 08:41:12;;;;;;;5.80;4.80;;;;;;;28.02;33.04;101122.38;5050331;28;20047;-92
2022/06/22 08:43:42;;;;;;;5.32;4.22;;;;;;;28.13;32.73;101121.06;5050482;28;20029;-91
2022/06/22 08:46:44;;;;;;;8.30;4.47;;;;;;;28.83;32.24;101122.53;5054202;28;20071;-90
2022/06/22 08:49:28;;;;;;;7.03;3.70;;;;;;;29.58;31.58;101121.34;5056491;28;20048;-91
2022/06/22 08:52:09;;;;;;;10.45;4.13;;;;;;;30.26;30.44;101119.81;5055365;28;20055;-94
2022/06/22 08:54:34;;;;;;;7.53;3.90;;;;;;;30.02;29.00;101116.47;5055088;28;20478;-91
2022/06/22 08:57:33;;;;;;;6.05;3.40;;;;;;;29.91;30.48;101116.16;5057159;28;20035;-91
2022/06/22 09:00:13;;;;;;;3.65;3.15;;;;;;;29.75;29.35;101114.53;5060880;28;20036;-92
2022/06/22 09:02:52;;;;;;;6.00;3.53;;;;;;;30.35;28.68;101112.28;5067974;28;20021;-91
2022/06/22 09:05:42;;;;;;;4.63;2.97;;;;;;;30.62;28.59;101107.78;5057473;28;20025;-92
2022/06/22 09:08:21;;;;;;;7.47;3.60;;;;;;;31.36;28.64;101102.44;5052392;28;20088;-95
2022/06/22 09:11:00;;;;;;;5.85;3.15;;;;;;;31.48;26.98;101113.66;5064195;28;20027;-96
2022/06/22 09:13:41;;;;;;;5.85;2.97;;;;;;;31.79;27.78;101114.97;5065646;28;20082;-94
2022/06/22 09:16:20;;;;;;;5.35;2.70;;;;;;;32.59;26.45;101113.00;5063204;28;20037;-94
2022/06/22 09:18:55;;;;;;;6.07;2.53;;;;;;;32.77;25.87;101112.31;5059219;28;20031;-94
2022/06/22 09:21:36;;;;;;;5.75;3.22;;;;;;;32.46;25.92;101120.25;5057082;28;20048;-95
2022/06/22 09:24:05;;;;;;;7.53;3.40;;;;;;;32.33;25.62;101123.00;5051379;28;20033;-93
2022/06/22 09:27:18;;;;;;;8.45;3.47;;;;;;;32.96;26.23;101122.44;5053713;28;20029;-96
2022/06/22 09:30:00;;;;;;;6.82;3.55;;;;;;;33.19;25.93;101117.25;5047665;28;20040;-95
2022/06/22 09:32:50;;;;;;;6.03;4.05;;;;;;;33.75;24.24;101129.44;5054496;28;20104;-93
2022/06/22 09:35:38;;;;;;;5.40;2.60;;;;;;;33.71;22.76;101126.25;5052736;28;20040;-94
2022/06/22 09:38:15;;;;;;;5.95;3.08;;;;;;;33.31;23.84;101138.59;5053343;28;20031;-94
2022/06/22 09:41:19;;;;;;;5.88;2.60;;;;;;;33.83;24.42;101133.81;5047113;28;20073;-92
2022/06/22 09:43:48;;;;;;;5.50;2.95;;;;;;;34.53;21.94;101136.41;5040836;28;20526;-94
2022/06/22 09:46:22;;;;;;;7.00;2.78;;;;;;;34.36;22.66;101145.28;5052317;28;20035;-95
2022/06/22 09:48:55;;;;;;;6.20;3.03;;;;;;;34.45;21.57;101132.84;5051646;28;20107;-93
2022/06/22 09:51:43;;;;;;;4.78;3.08;;;;;;;35.38;22.57;101120.66;5043088;28;20099;-95
2022/06/22 09:57:42;;;;;;;5.40;4.05;;;;;;;35.61;22.07;101117.13;5055459;28;20407;-95
2022/06/22 10:00:18;;;;;;;7.10;3.47;;;;;;;36.01;21.68;101123.97;5051076;28;20056;-93
2022/06/22 10:03:04;;;;;;;5.53;3.60;;;;;;;36.57;21.25;101117.81;5046772;28;20033;-93
2022/06/22 10:06:06;;;;;;;6.00;3.58;;;;;;;36.76;21.14;101118.53;5040961;28;20025;-96
2022/06/22 10:08:57;;;;;;;5.57;3.83;;;;;;;35.90;21.69;101107.06;5051296;28;20060;-95
2022/06/22 10:11:34;;;;;;;5.40;3.55;;;;;;;35.65;21.58;101098.97;5050090;28;20061;-91
2022/06/22 10:14:22;;;;;;;7.68;3.88;;;;;;;35.85;22.45;101098.63;5046008;28;20087;-90
2022/06/22 10:17:01;;;;;;;5.20;3.45;;;;;;;36.36;22.16;101102.63;5041115;28;20029;-89
2022/06/22 10:19:41;;;;;;;5.80;3.70;;;;;;;36.44;21.26;101092.28;5055266;28;20071;-91
2022/06/22 10:23:02;;;;;;;7.38;3.70;;;;;;;36.70;21.84;101090.91;5051406;28;20107;-89
2022/06/22 10:26:03;;;;;;;8.45;5.90;;;;;;;36.60;22.43;101084.06;5036085;28;20034;-91
2022/06/22 10:28:38;;;;;;;5.88;4.10;;;;;;;36.15;21.19;101095.78;5024013;28;20871;-91
2022/06/22 10:31:27;;;;;;;6.80;4.03;;;;;;;36.47;20.20;101100.97;5015894;28;20060;-91
2022/06/22 10:34:27;;;;;;;7.47;4.22;;;;;;;36.39;21.22;101085.53;5014066;28;20034;-91
2022/06/22 10:37:02;;;;;;;6.15;3.70;;;;;;;36.90;20.87;101089.41;5006605;28;20093;-90
2022/06/22 10:39:55;;;;;;;5.82;3.65;;;;;;;37.30;20.75;101093.25;5028405;28;20036;-89
2022/06/22 10:45:57;;;;;;;4.30;3.25;;;;;;;35.64;20.77;101088.97;4960596;29;20046;-88
2022/06/22 10:48:38;;;;;;;5.10;3.63;;;;;;;36.71;21.30;101087.06;4969143;28;20031;-89
2022/06/22 10:51:40;;;;;;;6.40;3.03;;;;;;;36.84;21.14;101092.34;4963732;28;20073;-90
2022/06/22 10:54:14;;;;;;;3.83;2.80;;;;;;;36.31;20.73;101088.66;4961839;28;20082;-89
2022/06/22 10:57:07;;;;;;;6.18;3.20;;;;;;;37.25;20.61;101088.47;4956913;29;20039;-86
2022/06/22 10:59:51;;;;;;;5.05;3.00;;;;;;;37.56;19.17;101086.25;4957150;28;20046;-87
2022/06/22 11:02:25;;;;;;;8.18;3.47;;;;;;;36.45;19.28;101085.66;4987327;28;20058;-87
2022/06/22 11:05:27;;;;;;;6.50;3.55;;;;;;;36.61;21.20;101088.53;4989988;28;20050;-87
2022/06/22 11:08:11;;;;;;;5.22;2.90;;;;;;;36.90;18.93;101072.75;4981332;28;20062;-88
2022/06/22 11:10:58;;;;;;;5.65;2.88;;;;;;;36.75;19.15;101082.72;4968588;28;20046;-88
2022/06/22 11:13:37;;;;;;;4.53;2.60;;;;;;;37.94;18.33;101088.28;4984679;28;20177;-89
2022/06/22 11:16:40;;;;;;;3.28;2.88;;;;;;;38.38;18.71;101082.88;4997853;28;20128;-88
2022/06/22 11:19:36;;;;;;;5.07;2.45;;;;;;;38.89;18.05;101077.13;5043471;28;20513;-88
2022/06/22 11:22:35;;;;;;;5.75;3.08;;;;;;;38.56;18.73;101084.47;5047897;28;20035;-88
2022/06/22 11:31:47;;;;;;;3.72;2.58;;;;;;;38.47;17.54;101088.81;5043725;28;20075;-87
2022/06/22 11:34:37;;;;;;;5.03;2.45;;;;;;;39.03;17.29;101101.50;5048544;28;20037;-87
2022/06/22 11:37:08;;;;;;;4.15;2.53;;;;;;;38.90;16.98;101101.91;5030634;28;20040;-87
2022/06/22 11:39:55;;;;;;;7.95;2.72;;;;;;;38.10;17.28;101098.53;5058130;28;20128;-87
2022/06/22 11:42:32;;;;;;;4.75;2.35;;;;;;;38.07;17.85;101104.59;5040919;28;20025;-88
2022/06/22 11:48:18;;;;;;;3.15;2.00;;;;;;;38.21;16.45;101104.25;5044549;28;20036;-88
2022/06/22 11:51:05;;;;;;;4.10;1.92;;;;;;;39.11;16.74;101106.59;5030467;28;20438;-87
2022/06/22 11:53:39;;;;;;;4.60;1.80;;;;;;;39.44;16.63;101101.94;5044483;28;20139;-88
2022/06/22 11:56:12;;;;;;;4.35;1.80;;;;;;;39.83;15.79;101093.38;5039088;28;20475;-88
2022/06/22 11:59:15;;;;;;;3.58;1.75;;;;;;;39.92;15.23;101088.16;5045311;28;20021;-87
2022/06/22 12:01:58;;;;;;;;;;;;;;;40.16;15.58;101097.84;5041321;28;20029;-88
2022/06/22 12:04:42;;;;;;;3.95;2.17;;;;;;;39.10;16.66;101104.06;5037977;28;19921;-87
2022/06/22 12:07:42;;;;;;;4.50;1.98;;;;;;;39.20;16.48;101086.63;5046106;28;20083;-92
2022/06/22 12:10:27;;;;;;;3.28;1.63;;;;;;;39.04;15.37;101091.19;5049400;28;20040;-88
2022/06/22 12:13:25;;;;;;;3.28;1.80;;;;;;;38.94;16.17;101094.72;5045238;28;20047;-88
2022/06/22 12:16:34;;;;;;;4.55;1.70;;;;;;;39.87;15.17;101091.75;5047804;28;20743;-88
2022/06/22 12:19:37;;;;;;;3.47;1.85;;;;;;;40.53;15.02;101081.06;5039014;28;20131;-89
2022/06/22 12:22:16;;;;;;;2.60;1.50;;;;;;;40.30;14.67;101084.25;5050550;28;20056;-89
2022/06/22 12:25:00;;;;;;;2.17;1.50;;;;;;;40.18;14.26;101073.31;5046752;28;20413;-86
2022/06/22 12:27:30;;;;;;;2.47;1.48;;;;;;;40.49;13.26;101071.50;5044992;28;20025;-87
2022/06/22 12:30:29;;;;;;;2.20;1.38;;;;;;;41.28;14.64;101063.97;5041937;28;20083;-86